sensor_id;sensor_type;location;lat;lon;timestamp;P1;durP1;ratioP1;P2;durP2;ratioP2
70549;SDS011;58101;48.658;2.328;2022-09-09T00:04:58;9.95;;;1.77;;
70549;SDS011;58101;48.658;2.328;2022-09-09T00:15:30;8.65;;;1.58;;
70549;SDS011;58101;48.658;2.328;2022-09-09T00:18:07;9.13;;;1.55;;
70549;SDS011;58101;48.658;2.328;2022-09-09T00:21:00;9.68;;;1.52;;
70549;SDS011;58101;48.658;2.328;2022-09-09T00:23:35;9.20;;;1.50;;
70549;SDS011;58101;48.658;2.328;2022-09-09T00:31:25;8.85;;;1.40;;
70549;SDS011;58101;48.658;2.328;2022-09-09T00:33:53;8.15;;;1.42;;
70549;SDS011;58101;48.658;2.328;2022-09-09T00:36:24;9.57;;;1.55;;
70549;SDS011;58101;48.658;2.328;2022-09-09T00:38:57;12.55;;;1.40;;
70549;SDS011;58101;48.658;2.328;2022-09-09T00:55:14;12.73;;;1.70;;
70549;SDS011;58101;48.658;2.328;2022-09-09T00:57:48;8.23;;;1.40;;
70549;SDS011;58101;48.658;2.328;2022-09-09T01:02:53;10.32;;;1.77;;
70549;SDS011;58101;48.658;2.328;2022-09-09T01:05:37;9.88;;;1.50;;
70549;SDS011;58101;48.658;2.328;2022-09-09T01:10:59;12.90;;;1.63;;
70549;SDS011;58101;48.658;2.328;2022-09-09T01:13:31;9.57;;;1.67;;
70549;SDS011;58101;48.658;2.328;2022-09-09T01:16:00;13.70;;;1.63;;
70549;SDS011;58101;48.658;2.328;2022-09-09T01:18:29;12.07;;;1.60;;
70549;SDS011;58101;48.658;2.328;2022-09-09T01:29:04;13.30;;;1.70;;
70549;SDS011;58101;48.658;2.328;2022-09-09T01:34:21;13.32;;;1.60;;
70549;SDS011;58101;48.658;2.328;2022-09-09T01:39:26;12.57;;;1.77;;
70549;SDS011;58101;48.658;2.328;2022-09-09T01:41:52;11.05;;;1.55;;
70549;SDS011;58101;48.658;2.328;2022-09-09T01:44:20;11.68;;;1.70;;
70549;SDS011;58101;48.658;2.328;2022-09-09T01:46:46;11.10;;;1.50;;
70549;SDS011;58101;48.658;2.328;2022-09-09T01:49:12;10.88;;;1.58;;
70549;SDS011;58101;48.658;2.328;2022-09-09T01:51:41;12.65;;;1.60;;
70549;SDS011;58101;48.658;2.328;2022-09-09T01:54:11;11.23;;;1.63;;
70549;SDS011;58101;48.658;2.328;2022-09-09T01:56:47;13.23;;;1.70;;
70549;SDS011;58101;48.658;2.328;2022-09-09T02:02:18;15.43;;;2.10;;
70549;SDS011;58101;48.658;2.328;2022-09-09T02:05:27;8.30;;;1.50;;
70549;SDS011;58101;48.658;2.328;2022-09-09T02:07:53;12.38;;;2.00;;
70549;SDS011;58101;48.658;2.328;2022-09-09T02:13:04;15.02;;;2.08;;
70549;SDS011;58101;48.658;2.328;2022-09-09T02:18:41;10.95;;;1.63;;
70549;SDS011;58101;48.658;2.328;2022-09-09T02:21:20;13.48;;;1.90;;
70549;SDS011;58101;48.658;2.328;2022-09-09T02:26:17;15.95;;;1.88;;
70549;SDS011;58101;48.658;2.328;2022-09-09T02:28:46;12.80;;;1.70;;
70549;SDS011;58101;48.658;2.328;2022-09-09T02:31:15;11.40;;;1.70;;
70549;SDS011;58101;48.658;2.328;2022-09-09T02:33:44;11.90;;;1.45;;
70549;SDS011;58101;48.658;2.328;2022-09-09T02:36:16;11.70;;;1.90;;
70549;SDS011;58101;48.658;2.328;2022-09-09T02:41:10;12.95;;;2.00;;
70549;SDS011;58101;48.658;2.328;2022-09-09T02:43:36;9.73;;;1.70;;
70549;SDS011;58101;48.658;2.328;2022-09-09T02:56:56;13.40;;;1.60;;
70549;SDS011;58101;48.658;2.328;2022-09-09T02:59:33;14.43;;;2.05;;
70549;SDS011;58101;48.658;2.328;2022-09-09T03:01:59;11.13;;;1.80;;
70549;SDS011;58101;48.658;2.328;2022-09-09T03:04:24;9.23;;;1.50;;
70549;SDS011;58101;48.658;2.328;2022-09-09T03:06:50;12.88;;;1.90;;
70549;SDS011;58101;48.658;2.328;2022-09-09T03:09:16;14.48;;;1.88;;
70549;SDS011;58101;48.658;2.328;2022-09-09T03:11:42;14.30;;;2.13;;
70549;SDS011;58101;48.658;2.328;2022-09-09T03:14:07;15.45;;;1.83;;
70549;SDS011;58101;48.658;2.328;2022-09-09T03:16:33;10.77;;;1.60;;
70549;SDS011;58101;48.658;2.328;2022-09-09T03:19:00;11.98;;;1.73;;
70549;SDS011;58101;48.658;2.328;2022-09-09T03:21:26;11.80;;;1.65;;
70549;SDS011;58101;48.658;2.328;2022-09-09T03:23:51;10.48;;;1.83;;
70549;SDS011;58101;48.658;2.328;2022-09-09T03:26:17;12.98;;;1.63;;
70549;SDS011;58101;48.658;2.328;2022-09-09T03:28:42;14.10;;;1.75;;
70549;SDS011;58101;48.658;2.328;2022-09-09T03:31:09;8.60;;;1.80;;
70549;SDS011;58101;48.658;2.328;2022-09-09T03:33:36;13.27;;;2.03;;
70549;SDS011;58101;48.658;2.328;2022-09-09T03:36:03;9.20;;;1.70;;
70549;SDS011;58101;48.658;2.328;2022-09-09T03:38:29;12.20;;;1.70;;
70549;SDS011;58101;48.658;2.328;2022-09-09T03:40:55;9.38;;;1.67;;
70549;SDS011;58101;48.658;2.328;2022-09-09T03:43:25;12.82;;;1.90;;
70549;SDS011;58101;48.658;2.328;2022-09-09T03:45:52;12.70;;;1.80;;
70549;SDS011;58101;48.658;2.328;2022-09-09T03:48:21;12.70;;;1.95;;
70549;SDS011;58101;48.658;2.328;2022-09-09T03:50:48;16.02;;;1.80;;
70549;SDS011;58101;48.658;2.328;2022-09-09T03:53:16;14.00;;;2.35;;
70549;SDS011;58101;48.658;2.328;2022-09-09T03:55:47;14.68;;;2.20;;
70549;SDS011;58101;48.658;2.328;2022-09-09T03:58:15;13.55;;;1.90;;
70549;SDS011;58101;48.658;2.328;2022-09-09T04:00:43;17.15;;;1.90;;
70549;SDS011;58101;48.658;2.328;2022-09-09T04:03:18;11.98;;;2.05;;
70549;SDS011;58101;48.658;2.328;2022-09-09T04:05:44;17.58;;;2.00;;
70549;SDS011;58101;48.658;2.328;2022-09-09T04:08:16;13.80;;;2.33;;
70549;SDS011;58101;48.658;2.328;2022-09-09T04:10:44;11.23;;;1.88;;
70549;SDS011;58101;48.658;2.328;2022-09-09T04:13:11;11.43;;;1.80;;
70549;SDS011;58101;48.658;2.328;2022-09-09T04:15:39;14.70;;;2.30;;
70549;SDS011;58101;48.658;2.328;2022-09-09T04:18:04;13.82;;;1.95;;
70549;SDS011;58101;48.658;2.328;2022-09-09T04:20:31;12.20;;;1.90;;
70549;SDS011;58101;48.658;2.328;2022-09-09T04:22:57;14.20;;;2.00;;
70549;SDS011;58101;48.658;2.328;2022-09-09T04:25:23;14.60;;;2.30;;
70549;SDS011;58101;48.658;2.328;2022-09-09T04:27:53;11.70;;;2.45;;
70549;SDS011;58101;48.658;2.328;2022-09-09T04:30:19;16.25;;;2.25;;
70549;SDS011;58101;48.658;2.328;2022-09-09T04:32:46;15.20;;;2.13;;
70549;SDS011;58101;48.658;2.328;2022-09-09T04:35:11;12.90;;;1.80;;
70549;SDS011;58101;48.658;2.328;2022-09-09T04:37:37;14.98;;;1.95;;
70549;SDS011;58101;48.658;2.328;2022-09-09T04:40:03;13.43;;;2.03;;
70549;SDS011;58101;48.658;2.328;2022-09-09T04:42:29;11.48;;;1.80;;
70549;SDS011;58101;48.658;2.328;2022-09-09T04:44:55;15.52;;;2.20;;
70549;SDS011;58101;48.658;2.328;2022-09-09T04:47:21;19.05;;;3.25;;
70549;SDS011;58101;48.658;2.328;2022-09-09T04:49:46;12.80;;;2.00;;
70549;SDS011;58101;48.658;2.328;2022-09-09T04:52:12;10.68;;;2.00;;
70549;SDS011;58101;48.658;2.328;2022-09-09T04:54:38;15.60;;;2.40;;
70549;SDS011;58101;48.658;2.328;2022-09-09T04:57:04;11.95;;;2.25;;
70549;SDS011;58101;48.658;2.328;2022-09-09T04:59:30;15.07;;;2.33;;
70549;SDS011;58101;48.658;2.328;2022-09-09T05:01:55;15.35;;;2.20;;
70549;SDS011;58101;48.658;2.328;2022-09-09T05:04:21;10.10;;;1.80;;
70549;SDS011;58101;48.658;2.328;2022-09-09T05:06:47;13.88;;;2.05;;
70549;SDS011;58101;48.658;2.328;2022-09-09T05:09:13;15.25;;;2.00;;
70549;SDS011;58101;48.658;2.328;2022-09-09T05:11:39;10.80;;;1.90;;
70549;SDS011;58101;48.658;2.328;2022-09-09T05:14:04;12.05;;;1.80;;
70549;SDS011;58101;48.658;2.328;2022-09-09T05:16:30;11.00;;;1.67;;
70549;SDS011;58101;48.658;2.328;2022-09-09T05:18:56;12.80;;;1.90;;
70549;SDS011;58101;48.658;2.328;2022-09-09T05:21:22;10.35;;;1.88;;
70549;SDS011;58101;48.658;2.328;2022-09-09T05:23:51;12.48;;;2.13;;
70549;SDS011;58101;48.658;2.328;2022-09-09T05:26:18;14.02;;;2.17;;
70549;SDS011;58101;48.658;2.328;2022-09-09T05:28:45;18.30;;;2.35;;
70549;SDS011;58101;48.658;2.328;2022-09-09T05:31:12;12.10;;;2.00;;
70549;SDS011;58101;48.658;2.328;2022-09-09T05:33:42;14.02;;;2.80;;
70549;SDS011;58101;48.658;2.328;2022-09-09T05:36:14;14.35;;;2.78;;
70549;SDS011;58101;48.658;2.328;2022-09-09T05:38:41;11.75;;;2.03;;
70549;SDS011;58101;48.658;2.328;2022-09-09T05:41:20;15.70;;;2.50;;
70549;SDS011;58101;48.658;2.328;2022-09-09T05:43:48;12.77;;;1.90;;
70549;SDS011;58101;48.658;2.328;2022-09-09T05:46:14;10.82;;;2.25;;
70549;SDS011;58101;48.658;2.328;2022-09-09T05:48:43;15.55;;;2.10;;
70549;SDS011;58101;48.658;2.328;2022-09-09T05:51:25;14.45;;;2.03;;
70549;SDS011;58101;48.658;2.328;2022-09-09T05:53:53;14.95;;;2.17;;
70549;SDS011;58101;48.658;2.328;2022-09-09T05:56:23;16.77;;;2.05;;
70549;SDS011;58101;48.658;2.328;2022-09-09T05:58:51;14.63;;;2.33;;
70549;SDS011;58101;48.658;2.328;2022-09-09T06:01:25;13.40;;;2.08;;
70549;SDS011;58101;48.658;2.328;2022-09-09T06:03:52;12.13;;;2.05;;
70549;SDS011;58101;48.658;2.328;2022-09-09T06:06:21;12.40;;;1.80;;
70549;SDS011;58101;48.658;2.328;2022-09-09T06:08:52;11.90;;;2.08;;
70549;SDS011;58101;48.658;2.328;2022-09-09T06:11:20;14.35;;;2.72;;
70549;SDS011;58101;48.658;2.328;2022-09-09T06:13:47;11.15;;;2.08;;
70549;SDS011;58101;48.658;2.328;2022-09-09T06:16:17;13.25;;;2.20;;
70549;SDS011;58101;48.658;2.328;2022-09-09T06:18:44;14.05;;;2.00;;
70549;SDS011;58101;48.658;2.328;2022-09-09T06:21:17;16.23;;;2.47;;
70549;SDS011;58101;48.658;2.328;2022-09-09T06:23:45;13.20;;;2.08;;
70549;SDS011;58101;48.658;2.328;2022-09-09T06:26:17;10.93;;;2.00;;
70549;SDS011;58101;48.658;2.328;2022-09-09T06:28:44;14.25;;;2.10;;
70549;SDS011;58101;48.658;2.328;2022-09-09T06:31:12;13.35;;;1.85;;
70549;SDS011;58101;48.658;2.328;2022-09-09T06:33:46;12.35;;;2.20;;
70549;SDS011;58101;48.658;2.328;2022-09-09T06:36:14;10.77;;;2.17;;
70549;SDS011;58101;48.658;2.328;2022-09-09T06:38:41;10.02;;;1.65;;
70549;SDS011;58101;48.658;2.328;2022-09-09T06:41:08;14.10;;;2.00;;
70549;SDS011;58101;48.658;2.328;2022-09-09T06:43:35;15.25;;;1.90;;
70549;SDS011;58101;48.658;2.328;2022-09-09T06:46:11;9.70;;;1.85;;
70549;SDS011;58101;48.658;2.328;2022-09-09T06:51:16;11.07;;;1.90;;
70549;SDS011;58101;48.658;2.328;2022-09-09T06:53:45;11.85;;;2.03;;
70549;SDS011;58101;48.658;2.328;2022-09-09T06:58:46;10.93;;;2.13;;
70549;SDS011;58101;48.658;2.328;2022-09-09T07:01:14;12.23;;;2.00;;
70549;SDS011;58101;48.658;2.328;2022-09-09T07:03:48;13.18;;;2.03;;
70549;SDS011;58101;48.658;2.328;2022-09-09T07:06:19;9.73;;;1.70;;
70549;SDS011;58101;48.658;2.328;2022-09-09T07:08:49;13.48;;;1.90;;
70549;SDS011;58101;48.658;2.328;2022-09-09T07:11:19;10.98;;;1.70;;
70549;SDS011;58101;48.658;2.328;2022-09-09T07:13:46;11.40;;;1.90;;
70549;SDS011;58101;48.658;2.328;2022-09-09T07:16:13;12.20;;;1.60;;
70549;SDS011;58101;48.658;2.328;2022-09-09T07:18:43;9.88;;;1.85;;
70549;SDS011;58101;48.658;2.328;2022-09-09T07:21:11;9.65;;;1.83;;
70549;SDS011;58101;48.658;2.328;2022-09-09T07:23:37;11.25;;;1.80;;
70549;SDS011;58101;48.658;2.328;2022-09-09T07:26:14;13.80;;;1.90;;
70549;SDS011;58101;48.658;2.328;2022-09-09T07:28:41;11.88;;;1.50;;
70549;SDS011;58101;48.658;2.328;2022-09-09T07:31:12;11.85;;;1.83;;
70549;SDS011;58101;48.658;2.328;2022-09-09T07:33:42;9.85;;;1.55;;
70549;SDS011;58101;48.658;2.328;2022-09-09T07:36:10;11.93;;;1.60;;
70549;SDS011;58101;48.658;2.328;2022-09-09T07:38:46;11.02;;;1.58;;
70549;SDS011;58101;48.658;2.328;2022-09-09T07:41:24;8.93;;;1.50;;
70549;SDS011;58101;48.658;2.328;2022-09-09T07:44:10;8.30;;;1.40;;
70549;SDS011;58101;48.658;2.328;2022-09-09T07:46:38;10.32;;;1.70;;
70549;SDS011;58101;48.658;2.328;2022-09-09T07:49:04;9.23;;;1.73;;
70549;SDS011;58101;48.658;2.328;2022-09-09T07:51:31;8.82;;;1.40;;
70549;SDS011;58101;48.658;2.328;2022-09-09T07:53:59;7.30;;;1.35;;
70549;SDS011;58101;48.658;2.328;2022-09-09T07:56:30;10.15;;;1.60;;
70549;SDS011;58101;48.658;2.328;2022-09-09T07:58:56;11.20;;;1.48;;
70549;SDS011;58101;48.658;2.328;2022-09-09T08:01:24;8.98;;;1.70;;
70549;SDS011;58101;48.658;2.328;2022-09-09T08:03:53;9.35;;;1.40;;
70549;SDS011;58101;48.658;2.328;2022-09-09T08:06:24;8.32;;;1.42;;
70549;SDS011;58101;48.658;2.328;2022-09-09T08:08:51;9.65;;;1.50;;
70549;SDS011;58101;48.658;2.328;2022-09-09T08:11:17;9.35;;;1.52;;
70549;SDS011;58101;48.658;2.328;2022-09-09T08:13:44;8.05;;;1.40;;
70549;SDS011;58101;48.658;2.328;2022-09-09T08:16:11;9.45;;;1.60;;
70549;SDS011;58101;48.658;2.328;2022-09-09T08:18:41;6.90;;;1.23;;
70549;SDS011;58101;48.658;2.328;2022-09-09T08:23:36;7.65;;;1.40;;
70549;SDS011;58101;48.658;2.328;2022-09-09T08:26:14;11.75;;;1.52;;
70549;SDS011;58101;48.658;2.328;2022-09-09T08:28:41;7.15;;;1.20;;
70549;SDS011;58101;48.658;2.328;2022-09-09T08:31:09;6.47;;;1.13;;
70549;SDS011;58101;48.658;2.328;2022-09-09T08:33:37;7.57;;;1.30;;
70549;SDS011;58101;48.658;2.328;2022-09-09T08:36:05;10.88;;;1.40;;
70549;SDS011;58101;48.658;2.328;2022-09-09T08:38:33;10.32;;;1.50;;
70549;SDS011;58101;48.658;2.328;2022-09-09T08:41:03;10.65;;;1.60;;
70549;SDS011;58101;48.658;2.328;2022-09-09T08:43:41;9.35;;;1.27;;
70549;SDS011;58101;48.658;2.328;2022-09-09T08:46:12;8.57;;;1.02;;
70549;SDS011;58101;48.658;2.328;2022-09-09T08:49:17;10.43;;;1.55;;
70549;SDS011;58101;48.658;2.328;2022-09-09T08:51:58;7.03;;;1.20;;
70549;SDS011;58101;48.658;2.328;2022-09-09T08:54:26;5.82;;;1.10;;
70549;SDS011;58101;48.658;2.328;2022-09-09T08:56:59;7.57;;;1.30;;
70549;SDS011;58101;48.658;2.328;2022-09-09T08:59:25;7.45;;;1.10;;
70549;SDS011;58101;48.658;2.328;2022-09-09T09:01:56;9.05;;;1.60;;
70549;SDS011;58101;48.658;2.328;2022-09-09T09:10:10;9.48;;;1.38;;
70549;SDS011;58101;48.658;2.328;2022-09-09T09:12:47;6.95;;;1.25;;
70549;SDS011;58101;48.658;2.328;2022-09-09T09:15:16;8.23;;;1.40;;
70549;SDS011;58101;48.658;2.328;2022-09-09T09:17:46;6.65;;;1.23;;
70549;SDS011;58101;48.658;2.328;2022-09-09T09:20:14;8.85;;;1.40;;
70549;SDS011;58101;48.658;2.328;2022-09-09T09:22:48;9.95;;;1.30;;
70549;SDS011;58101;48.658;2.328;2022-09-09T09:27:54;8.13;;;1.40;;
70549;SDS011;58101;48.658;2.328;2022-09-09T09:30:24;11.90;;;1.83;;
70549;SDS011;58101;48.658;2.328;2022-09-09T09:32:53;8.35;;;1.30;;
70549;SDS011;58101;48.658;2.328;2022-09-09T09:35:22;7.63;;;1.23;;
70549;SDS011;58101;48.658;2.328;2022-09-09T09:37:49;7.15;;;1.23;;
70549;SDS011;58101;48.658;2.328;2022-09-09T09:40:15;8.65;;;1.13;;
70549;SDS011;58101;48.658;2.328;2022-09-09T09:42:53;6.88;;;1.05;;
70549;SDS011;58101;48.658;2.328;2022-09-09T09:48:04;7.95;;;1.20;;
70549;SDS011;58101;48.658;2.328;2022-09-09T09:50:34;7.22;;;1.20;;
70549;SDS011;58101;48.658;2.328;2022-09-09T09:53:02;8.48;;;1.30;;
70549;SDS011;58101;48.658;2.328;2022-09-09T09:55:30;9.77;;;1.52;;
70549;SDS011;58101;48.658;2.328;2022-09-09T09:58:03;8.43;;;1.10;;
70549;SDS011;58101;48.658;2.328;2022-09-09T10:00:30;8.95;;;1.42;;
70549;SDS011;58101;48.658;2.328;2022-09-09T10:02:57;6.53;;;1.20;;
70549;SDS011;58101;48.658;2.328;2022-09-09T10:05:26;9.38;;;1.73;;
70549;SDS011;58101;48.658;2.328;2022-09-09T10:08:27;7.25;;;1.30;;
70549;SDS011;58101;48.658;2.328;2022-09-09T10:13:52;7.97;;;1.13;;
70549;SDS011;58101;48.658;2.328;2022-09-09T10:22:04;8.95;;;1.73;;
70549;SDS011;58101;48.658;2.328;2022-09-09T10:33:10;7.22;;;1.10;;
70549;SDS011;58101;48.658;2.328;2022-09-09T10:38:28;5.78;;;1.30;;
70549;SDS011;58101;48.658;2.328;2022-09-09T10:41:18;7.35;;;1.38;;
70549;SDS011;58101;48.658;2.328;2022-09-09T10:52:15;7.28;;;1.10;;
70549;SDS011;58101;48.658;2.328;2022-09-09T10:54:56;10.50;;;1.42;;
70549;SDS011;58101;48.658;2.328;2022-09-09T10:57:31;7.50;;;1.13;;
70549;SDS011;58101;48.658;2.328;2022-09-09T11:00:06;9.00;;;1.40;;
70549;SDS011;58101;48.658;2.328;2022-09-09T11:02:53;9.80;;;1.27;;
70549;SDS011;58101;48.658;2.328;2022-09-09T11:15:53;8.00;;;1.33;;
70549;SDS011;58101;48.658;2.328;2022-09-09T11:18:24;7.57;;;1.17;;
70549;SDS011;58101;48.658;2.328;2022-09-09T11:20:55;7.43;;;1.33;;
70549;SDS011;58101;48.658;2.328;2022-09-09T11:23:33;6.10;;;1.02;;
70549;SDS011;58101;48.658;2.328;2022-09-09T11:26:07;6.68;;;1.30;;
70549;SDS011;58101;48.658;2.328;2022-09-09T11:28:52;7.75;;;1.20;;
70549;SDS011;58101;48.658;2.328;2022-09-09T11:40:23;6.85;;;1.10;;
70549;SDS011;58101;48.658;2.328;2022-09-09T11:43:04;8.43;;;1.20;;
70549;SDS011;58101;48.658;2.328;2022-09-09T11:45:37;7.32;;;1.50;;
70549;SDS011;58101;48.658;2.328;2022-09-09T11:48:04;6.95;;;1.38;;
70549;SDS011;58101;48.658;2.328;2022-09-09T11:50:34;9.73;;;1.40;;
70549;SDS011;58101;48.658;2.328;2022-09-09T11:55:30;9.75;;;1.20;;
70549;SDS011;58101;48.658;2.328;2022-09-09T12:08:53;7.18;;;1.48;;
70549;SDS011;58101;48.658;2.328;2022-09-09T12:11:26;9.40;;;1.20;;
70549;SDS011;58101;48.658;2.328;2022-09-09T12:13:54;6.18;;;1.20;;
70549;SDS011;58101;48.658;2.328;2022-09-09T12:16:34;8.07;;;1.40;;
70549;SDS011;58101;48.658;2.328;2022-09-09T12:19:06;8.32;;;1.15;;
70549;SDS011;58101;48.658;2.328;2022-09-09T12:22:01;6.35;;;1.17;;
70549;SDS011;58101;48.658;2.328;2022-09-09T12:24:47;5.75;;;0.98;;
70549;SDS011;58101;48.658;2.328;2022-09-09T12:27:33;8.00;;;1.15;;
70549;SDS011;58101;48.658;2.328;2022-09-09T12:30:09;7.38;;;1.20;;
70549;SDS011;58101;48.658;2.328;2022-09-09T12:32:39;6.25;;;1.10;;
70549;SDS011;58101;48.658;2.328;2022-09-09T12:35:19;5.90;;;1.15;;
70549;SDS011;58101;48.658;2.328;2022-09-09T12:37:49;9.00;;;1.30;;
70549;SDS011;58101;48.658;2.328;2022-09-09T12:40:20;8.23;;;1.30;;
70549;SDS011;58101;48.658;2.328;2022-09-09T12:42:47;6.50;;;1.00;;
70549;SDS011;58101;48.658;2.328;2022-09-09T12:45:18;7.72;;;1.15;;
70549;SDS011;58101;48.658;2.328;2022-09-09T12:47:54;7.68;;;1.25;;
70549;SDS011;58101;48.658;2.328;2022-09-09T12:50:31;5.45;;;1.00;;
70549;SDS011;58101;48.658;2.328;2022-09-09T12:53:17;8.18;;;1.25;;
70549;SDS011;58101;48.658;2.328;2022-09-09T12:58:28;6.03;;;1.00;;
70549;SDS011;58101;48.658;2.328;2022-09-09T13:01:02;6.85;;;1.17;;
70549;SDS011;58101;48.658;2.328;2022-09-09T13:03:30;6.13;;;1.08;;
70549;SDS011;58101;48.658;2.328;2022-09-09T13:06:13;7.57;;;1.05;;
70549;SDS011;58101;48.658;2.328;2022-09-09T13:08:47;5.90;;;1.10;;
70549;SDS011;58101;48.658;2.328;2022-09-09T13:11:36;9.13;;;1.35;;
70549;SDS011;58101;48.658;2.328;2022-09-09T13:14:12;9.15;;;1.40;;
70549;SDS011;58101;48.658;2.328;2022-09-09T13:16:58;8.65;;;1.27;;
70549;SDS011;58101;48.658;2.328;2022-09-09T13:19:26;7.28;;;1.10;;
70549;SDS011;58101;48.658;2.328;2022-09-09T13:22:18;8.18;;;1.30;;
70549;SDS011;58101;48.658;2.328;2022-09-09T13:24:47;8.50;;;1.20;;
70549;SDS011;58101;48.658;2.328;2022-09-09T13:27:34;7.35;;;1.20;;
70549;SDS011;58101;48.658;2.328;2022-09-09T13:30:19;8.32;;;1.45;;
70549;SDS011;58101;48.658;2.328;2022-09-09T13:32:47;7.90;;;1.30;;
70549;SDS011;58101;48.658;2.328;2022-09-09T13:35:26;11.52;;;1.60;;
70549;SDS011;58101;48.658;2.328;2022-09-09T13:37:52;8.02;;;1.27;;
70549;SDS011;58101;48.658;2.328;2022-09-09T13:40:19;7.57;;;1.50;;
70549;SDS011;58101;48.658;2.328;2022-09-09T13:42:46;8.27;;;1.52;;
70549;SDS011;58101;48.658;2.328;2022-09-09T13:45:20;8.10;;;1.45;;
70549;SDS011;58101;48.658;2.328;2022-09-09T13:47:48;7.07;;;1.30;;
70549;SDS011;58101;48.658;2.328;2022-09-09T13:50:27;8.02;;;1.52;;
70549;SDS011;58101;48.658;2.328;2022-09-09T13:52:57;6.00;;;1.25;;
70549;SDS011;58101;48.658;2.328;2022-09-09T13:55:27;9.20;;;1.38;;
70549;SDS011;58101;48.658;2.328;2022-09-09T13:58:04;5.93;;;1.20;;
70549;SDS011;58101;48.658;2.328;2022-09-09T14:02:57;8.60;;;1.40;;
70549;SDS011;58101;48.658;2.328;2022-09-09T14:05:25;9.18;;;1.23;;
70549;SDS011;58101;48.658;2.328;2022-09-09T14:07:51;8.50;;;1.48;;
70549;SDS011;58101;48.658;2.328;2022-09-09T14:10:16;8.98;;;1.60;;
70549;SDS011;58101;48.658;2.328;2022-09-09T14:12:42;6.50;;;1.30;;
70549;SDS011;58101;48.658;2.328;2022-09-09T14:15:09;10.38;;;1.60;;
70549;SDS011;58101;48.658;2.328;2022-09-09T14:17:36;9.55;;;1.40;;
70549;SDS011;58101;48.658;2.328;2022-09-09T14:20:05;6.22;;;1.30;;
70549;SDS011;58101;48.658;2.328;2022-09-09T14:22:34;6.75;;;1.20;;
70549;SDS011;58101;48.658;2.328;2022-09-09T14:25:01;6.22;;;1.30;;
70549;SDS011;58101;48.658;2.328;2022-09-09T14:29:53;10.45;;;1.38;;
70549;SDS011;58101;48.658;2.328;2022-09-09T14:32:19;8.02;;;1.40;;
70549;SDS011;58101;48.658;2.328;2022-09-09T14:37:26;8.48;;;1.30;;
70549;SDS011;58101;48.658;2.328;2022-09-09T14:39:58;6.90;;;1.30;;
70549;SDS011;58101;48.658;2.328;2022-09-09T14:42:27;7.15;;;1.40;;
70549;SDS011;58101;48.658;2.328;2022-09-09T14:44:55;5.82;;;1.27;;
70549;SDS011;58101;48.658;2.328;2022-09-09T14:47:20;5.88;;;1.20;;
70549;SDS011;58101;48.658;2.328;2022-09-09T14:49:47;7.15;;;1.35;;
70549;SDS011;58101;48.658;2.328;2022-09-09T14:52:14;5.13;;;1.02;;
70549;SDS011;58101;48.658;2.328;2022-09-09T14:54:41;4.70;;;1.00;;
70549;SDS011;58101;48.658;2.328;2022-09-09T14:57:07;5.35;;;0.98;;
70549;SDS011;58101;48.658;2.328;2022-09-09T14:59:32;5.60;;;0.93;;
70549;SDS011;58101;48.658;2.328;2022-09-09T15:04:31;6.60;;;1.20;;
70549;SDS011;58101;48.658;2.328;2022-09-09T15:06:57;6.68;;;1.05;;
70549;SDS011;58101;48.658;2.328;2022-09-09T15:09:23;5.85;;;1.00;;
70549;SDS011;58101;48.658;2.328;2022-09-09T15:11:48;6.70;;;1.10;;
70549;SDS011;58101;48.658;2.328;2022-09-09T15:14:14;6.50;;;1.10;;
70549;SDS011;58101;48.658;2.328;2022-09-09T15:16:40;6.07;;;1.10;;
70549;SDS011;58101;48.658;2.328;2022-09-09T15:19:06;6.55;;;1.30;;
70549;SDS011;58101;48.658;2.328;2022-09-09T15:21:33;6.55;;;1.10;;
70549;SDS011;58101;48.658;2.328;2022-09-09T15:24:00;6.90;;;1.10;;
70549;SDS011;58101;48.658;2.328;2022-09-09T15:26:26;5.57;;;1.20;;
70549;SDS011;58101;48.658;2.328;2022-09-09T15:28:53;7.07;;;1.23;;
70549;SDS011;58101;48.658;2.328;2022-09-09T15:31:23;8.40;;;1.40;;
70549;SDS011;58101;48.658;2.328;2022-09-09T15:33:53;9.05;;;2.00;;
70549;SDS011;58101;48.658;2.328;2022-09-09T15:36:29;11.02;;;2.20;;
70549;SDS011;58101;48.658;2.328;2022-09-09T15:39:06;6.32;;;1.33;;
70549;SDS011;58101;48.658;2.328;2022-09-09T15:41:34;6.13;;;1.40;;
70549;SDS011;58101;48.658;2.328;2022-09-09T15:44:00;6.68;;;1.17;;
70549;SDS011;58101;48.658;2.328;2022-09-09T15:49:04;5.30;;;1.30;;
70549;SDS011;58101;48.658;2.328;2022-09-09T15:51:31;7.07;;;1.40;;
70549;SDS011;58101;48.658;2.328;2022-09-09T15:53:58;8.05;;;1.35;;
70549;SDS011;58101;48.658;2.328;2022-09-09T15:56:29;5.30;;;1.20;;
70549;SDS011;58101;48.658;2.328;2022-09-09T15:58:56;5.63;;;1.10;;
70549;SDS011;58101;48.658;2.328;2022-09-09T16:01:43;7.13;;;1.10;;
70549;SDS011;58101;48.658;2.328;2022-09-09T16:04:28;6.05;;;1.75;;
70549;SDS011;58101;48.658;2.328;2022-09-09T16:09:30;5.68;;;1.40;;
70549;SDS011;58101;48.658;2.328;2022-09-09T16:11:58;5.78;;;1.40;;
70549;SDS011;58101;48.658;2.328;2022-09-09T16:14:25;5.85;;;1.20;;
70549;SDS011;58101;48.658;2.328;2022-09-09T16:16:52;7.75;;;1.27;;
70549;SDS011;58101;48.658;2.328;2022-09-09T16:19:24;9.02;;;1.33;;
70549;SDS011;58101;48.658;2.328;2022-09-09T16:21:50;5.60;;;1.50;;
70549;SDS011;58101;48.658;2.328;2022-09-09T16:24:17;4.68;;;1.00;;
70549;SDS011;58101;48.658;2.328;2022-09-09T16:26:59;6.97;;;1.20;;
70549;SDS011;58101;48.658;2.328;2022-09-09T16:29:25;4.82;;;1.00;;
70549;SDS011;58101;48.658;2.328;2022-09-09T16:31:52;4.93;;;0.90;;
70549;SDS011;58101;48.658;2.328;2022-09-09T16:34:19;3.90;;;0.80;;
70549;SDS011;58101;48.658;2.328;2022-09-09T16:36:45;4.35;;;0.90;;
70549;SDS011;58101;48.658;2.328;2022-09-09T16:39:15;5.25;;;1.00;;
70549;SDS011;58101;48.658;2.328;2022-09-09T16:41:43;5.18;;;0.88;;
70549;SDS011;58101;48.658;2.328;2022-09-09T16:44:11;3.78;;;0.88;;
70549;SDS011;58101;48.658;2.328;2022-09-09T16:46:41;7.38;;;1.30;;
70549;SDS011;58101;48.658;2.328;2022-09-09T16:49:09;5.63;;;1.00;;
70549;SDS011;58101;48.658;2.328;2022-09-09T16:51:37;5.53;;;1.00;;
70549;SDS011;58101;48.658;2.328;2022-09-09T16:54:08;3.92;;;0.90;;
70549;SDS011;58101;48.658;2.328;2022-09-09T16:56:36;5.07;;;1.00;;
70549;SDS011;58101;48.658;2.328;2022-09-09T16:59:07;4.90;;;0.90;;
70549;SDS011;58101;48.658;2.328;2022-09-09T17:01:36;6.00;;;1.00;;
70549;SDS011;58101;48.658;2.328;2022-09-09T17:04:04;4.57;;;0.90;;
70549;SDS011;58101;48.658;2.328;2022-09-09T17:06:32;4.40;;;0.80;;
70549;SDS011;58101;48.658;2.328;2022-09-09T17:09:07;5.05;;;1.00;;
70549;SDS011;58101;48.658;2.328;2022-09-09T17:11:34;4.82;;;0.88;;
70549;SDS011;58101;48.658;2.328;2022-09-09T17:14:01;4.13;;;0.80;;
70549;SDS011;58101;48.658;2.328;2022-09-09T17:16:29;3.67;;;0.90;;
70549;SDS011;58101;48.658;2.328;2022-09-09T17:18:56;6.80;;;1.00;;
70549;SDS011;58101;48.658;2.328;2022-09-09T17:21:24;4.22;;;0.98;;
70549;SDS011;58101;48.658;2.328;2022-09-09T17:23:51;5.22;;;0.95;;
70549;SDS011;58101;48.658;2.328;2022-09-09T17:26:18;4.43;;;0.90;;
70549;SDS011;58101;48.658;2.328;2022-09-09T17:28:44;4.63;;;0.90;;
70549;SDS011;58101;48.658;2.328;2022-09-09T17:31:11;4.97;;;0.98;;
70549;SDS011;58101;48.658;2.328;2022-09-09T17:33:39;6.15;;;1.10;;
70549;SDS011;58101;48.658;2.328;2022-09-09T17:36:15;6.82;;;1.00;;
70549;SDS011;58101;48.658;2.328;2022-09-09T17:38:43;5.35;;;1.20;;
70549;SDS011;58101;48.658;2.328;2022-09-09T17:41:11;5.03;;;1.15;;
70549;SDS011;58101;48.658;2.328;2022-09-09T17:43:42;4.82;;;1.08;;
70549;SDS011;58101;48.658;2.328;2022-09-09T17:46:09;3.85;;;0.98;;
70549;SDS011;58101;48.658;2.328;2022-09-09T17:48:35;8.82;;;1.52;;
70549;SDS011;58101;48.658;2.328;2022-09-09T17:51:02;5.00;;;0.95;;
70549;SDS011;58101;48.658;2.328;2022-09-09T17:53:29;5.55;;;1.00;;